EGSSLEAS

Guest
Details From EGSS - London Stansted
To LEAS - Asturias
Flight Number -
Tags Generated
Created
Modified
Stats Distance 560 nm / 1,036 km
Max Altitude 0 ft / 0 m
Waypoints 4
Social Downloads 1
Likes 0
Share VATSIM

Download

Looking for another format? Having issues loading an existing format? Contact us
Advertisement - Login to hide

Notes

Generated

Route

EGSS SALME ARPOM LEAS

ID Type Via Altitude Latitude Longitude Leg Dist Tot Dist Heading (true) Name
O EGSS APT - 0 ft / 0 m 51.87508˚ 0.21993˚ - 0 nm - -
SALME FIX - 0 ft / 0 m 47.82289˚ -3.15889˚ 276 nm 276 nm 210° / 207° -
ARPOM FIX - 0 ft / 0 m 43.82917˚ -5.98441˚ 267 nm 543 nm 207° / 205° -
O LEAS APT - 0 ft / 0 m 43.56657˚ -6.04764˚ 16 nm 559 nm 190° / 190° -

Altitude Profile

Advertisement - Login to hide

Weather


0- 5 10 15 20 25 30 35+ Temperature / ° C

Clouds and Precipitation
Forecast for 2018-05-21 12:00 UTC. Updated 10 minutes ago

Ground ~20,000 ft ~40,000 ft Winds

EGSS

Details ICAO EGSS (STN)
Name London Stansted
Region United Kingdom
Timezone Europe/London (UTC+1.0)
Stats Elevation 348 ft / 106 m (AMSL)
Location 51.885097° 0.234962°
Runways 1
Magnetic Variation 0.299° W

METAR

EGSS 211120Z AUTO 36007KT 330V040 9000 NCD 20/14 Q1016

Decode

TAF

TAF AMD EGSS 211004Z 2110/2212 02005KT 9999 FEW045 TEMPO 2110/2113 9000 PROB30 TEMPO 2113/2119 4000 +TSRA PROB30 TEMPO 2119/2203 8000 SHRA

Decode

Departure Runways

ID Width Length Bearing (true) Bearing (mag) Surface Threshold Offset Overrun Length
04 151 ft / 46 m 10,011 ft / 3,052 m 42.79° 43.09° Asphalt 994 ft / 303 m 0 ft / 0 m
22 151 ft / 46 m 10,011 ft / 3,052 m 222.81° 223.11° Asphalt 0 ft / 0 m 0 ft / 0 m

LEAS

Details ICAO LEAS (OVD)
Name Asturias
Region Spain
Timezone Europe/Madrid (UTC+2.0)
Stats Elevation 416 ft / 127 m (AMSL)
Location 43.563496° -6.034670°
Runways 1
Magnetic Variation 1.571° W

METAR

LEAS 211130Z 06007KT 300V110 9999 FEW010 17/14 Q1012 NOSIG

Decode

TAF

TAF LEAS 210800Z 2109/2209 04009KT 9999 FEW030 TX20/2114Z TN11/2207Z PROB40 TEMPO 2112/2120 SCT030TCU TEMPO 2118/2209 3000 BR BKN010 PROB40 TEMPO 2200/2207 0800 BCFG BKN002

Decode

Destination Runways

ID Width Length Bearing (true) Bearing (mag) Surface Threshold Offset Overrun Length
11 148 ft / 45 m 7,216 ft / 2,200 m 108.09° 109.66° Asphalt 0 ft / 0 m 164 ft / 50 m
29 148 ft / 45 m 7,216 ft / 2,200 m 288.10° 289.67° Asphalt 0 ft / 0 m 164 ft / 50 m

Approach Navaids

Runway Type Ident Frequency Range Bearing (true) Bearing (mag) Slope Elevation
29 Localiser AVS 110.10 MHz 18 nm / 33 km 288.30° 289.87° - 416 ft / 127 m (AMSL)
29 Glidescope AVS 110.10 MHz 10 nm / 19 km 288.09° 289.67° 3.00° 416 ft / 127 m (AMSL)
29 DME AVS 110.10 MHz 18 nm / 33 km - - - 430 ft / 131 m (AMSL)

Popular Alternatives